Time;durP1;ratioP1;P1;durP2;ratioP2;P2;SDS_P1;SDS_P2;PMS_P1;PMS_P2;Temp;Humidity;BMP_temperature;BMP_pressure;BME280_temperature;BME280_humidity;BME280_pressure;Samples;Min_cycle;Max_cycle;Signal;HPM_P1;HPM_P2
2022/06/09 00:01:36;;;;;;;2.63;0.80;;;15.80;95.80;;;;;;5071089;28;20429;-65
2022/06/09 00:04:07;;;;;;;2.93;1.17;;;15.80;95.70;;;;;;5054933;28;20460;-64
2022/06/09 00:06:39;;;;;;;2.67;1.30;;;15.80;95.60;;;;;;5058280;28;20440;-65
2022/06/09 00:09:07;;;;;;;2.20;1.20;;;15.70;95.40;;;;;;5075087;28;20497;-65
2022/06/09 00:11:41;;;;;;;3.23;1.00;;;15.70;95.70;;;;;;5071708;28;20468;-65
2022/06/09 00:14:09;;;;;;;2.50;1.27;;;15.70;95.70;;;;;;5055241;28;20506;-65
2022/06/09 00:16:37;;;;;;;2.13;1.23;;;15.70;96.10;;;;;;5057288;28;20432;-65
2022/06/09 00:19:05;;;;;;;2.23;1.13;;;15.70;96.10;;;;;;5074920;28;20443;-65
2022/06/09 00:21:33;;;;;;;2.27;1.10;;;15.70;96.10;;;;;;5073144;28;20483;-65
2022/06/09 00:24:00;;;;;;;1.90;1.20;;;15.70;95.80;;;;;;5054535;28;20931;-66
2022/06/09 00:26:27;;;;;;;2.00;1.30;;;15.80;96.00;;;;;;5054416;28;21034;-67
2022/06/09 00:28:56;;;;;;;2.90;1.20;;;15.80;95.90;;;;;;5068520;28;20430;-65
2022/06/09 00:31:23;;;;;;;1.80;0.90;;;15.80;95.90;;;;;;5054779;28;20494;-64
2022/06/09 00:33:51;;;;;;;3.07;1.20;;;15.80;95.90;;;;;;5072986;28;20470;-65
2022/06/09 00:36:18;;;;;;;2.83;1.27;;;15.80;95.60;;;;;;5074647;28;20452;-66
2022/06/09 00:38:46;;;;;;;2.30;1.40;;;15.80;95.60;;;;;;5056585;28;20429;-65
2022/06/09 00:41:13;;;;;;;2.47;1.30;;;15.80;95.70;;;;;;5054381;28;20517;-65
2022/06/09 00:43:43;;;;;;;2.30;1.33;;;15.90;95.80;;;;;;5069975;28;20440;-65
2022/06/09 00:46:17;;;;;;;2.00;1.23;;;15.90;95.70;;;;;;5074602;28;20440;-65
2022/06/09 00:48:48;;;;;;;2.10;1.10;;;15.90;95.70;;;;;;5058018;28;20440;-65
2022/06/09 00:51:26;;;;;;;2.67;1.53;;;15.90;95.70;;;;;;5054578;28;20873;-65
2022/06/09 00:53:58;;;;;;;2.40;1.50;;;16.00;95.80;;;;;;5070323;28;20495;-65
2022/06/09 00:56:26;;;;;;;1.90;1.10;;;16.00;95.80;;;;;;5074550;28;20817;-65
2022/06/09 00:58:55;;;;;;;2.30;1.13;;;15.90;95.80;;;;;;5057615;28;20447;-65
2022/06/09 01:01:25;;;;;;;2.93;1.10;;;16.00;95.70;;;;;;5059059;28;20479;-65
2022/06/09 01:03:57;;;;;;;4.13;2.20;;;16.00;95.60;;;;;;5074108;28;20447;-65
2022/06/09 01:06:28;;;;;;;2.40;1.30;;;16.00;95.40;;;;;;5069214;28;20434;-65
2022/06/09 01:09:02;;;;;;;2.70;1.27;;;15.90;95.70;;;;;;5054021;28;20499;-65
2022/06/09 01:11:29;;;;;;;4.00;1.17;;;15.90;95.70;;;;;;5058341;28;20781;-65
2022/06/09 01:13:58;;;;;;;2.63;1.57;;;16.00;95.70;;;;;;5074170;28;20440;-65
2022/06/09 01:16:35;;;;;;;2.33;1.20;;;16.00;95.80;;;;;;5070086;28;20433;-65
2022/06/09 01:19:16;;;;;;;1.80;1.23;;;16.00;95.70;;;;;;5053860;28;20523;-65
2022/06/09 01:22:18;;;;;;;1.90;1.00;;;16.00;95.90;;;;;;5058957;28;20480;-65
2022/06/09 01:25:08;;;;;;;2.00;1.03;;;16.00;96.20;;;;;;5073528;28;20514;-65
2022/06/09 01:27:56;;;;;;;2.53;1.00;;;16.00;96.00;;;;;;5058588;28;20448;-65
2022/06/09 01:30:36;;;;;;;2.43;1.17;;;16.00;96.20;;;;;;5054460;28;20476;-65
2022/06/09 01:33:09;;;;;;;1.90;1.20;;;16.00;96.30;;;;;;5073512;28;20501;-65
2022/06/09 01:35:42;;;;;;;1.90;1.17;;;16.00;96.10;;;;;;5070357;28;20450;-65
2022/06/09 01:38:10;;;;;;;3.03;1.50;;;16.00;96.10;;;;;;5053322;28;20781;-65
2022/06/09 01:40:37;;;;;;;2.47;1.40;;;16.00;95.90;;;;;;5054958;28;20529;-65
2022/06/09 01:43:06;;;;;;;2.20;1.20;;;16.00;95.80;;;;;;5073434;28;20435;-65
2022/06/09 01:45:45;;;;;;;2.23;1.17;;;15.90;95.90;;;;;;5071635;28;20432;-65
2022/06/09 01:48:16;;;;;;;3.07;1.60;;;15.90;96.10;;;;;;5053233;28;20799;-66
2022/06/09 01:50:46;;;;;;;2.40;1.90;;;15.90;96.20;;;;;;5054951;28;20827;-65
2022/06/09 01:53:16;;;;;;;2.00;1.40;;;16.00;96.10;;;;;;5072541;28;20476;-65
2022/06/09 01:55:46;;;;;;;2.80;1.77;;;16.00;96.10;;;;;;5072073;28;20468;-65
2022/06/09 01:58:17;;;;;;;2.37;1.10;;;16.00;96.30;;;;;;5072941;28;20542;-65
2022/06/09 02:00:46;;;;;;;2.20;1.30;;;16.00;96.00;;;;;;5072655;28;20483;-65
2022/06/09 02:03:17;;;;;;;3.23;1.10;;;16.00;95.90;;;;;;5073178;28;20440;-65
2022/06/09 02:05:48;;;;;;;9.23;1.67;;;16.00;95.80;;;;;;5072162;28;20440;-65
2022/06/09 02:08:22;;;;;;;1.80;1.13;;;16.00;96.00;;;;;;5072813;28;20446;-65
2022/06/09 02:10:54;;;;;;;2.50;1.50;;;15.90;95.90;;;;;;5052537;28;20508;-65
2022/06/09 02:13:26;;;;;;;3.90;2.00;;;15.90;96.00;;;;;;5052931;28;20433;-65
2022/06/09 02:15:59;;;;;;;3.47;1.50;;;15.90;96.10;;;;;;5064640;28;20942;-65
2022/06/09 02:18:29;;;;;;;2.10;1.20;;;15.90;96.20;;;;;;5052996;28;20868;-66
2022/06/09 02:21:01;;;;;;;2.17;1.23;;;15.90;96.30;;;;;;5052724;28;20481;-65
2022/06/09 02:23:29;;;;;;;2.23;1.23;;;15.90;96.60;;;;;;5071543;28;20428;-65
2022/06/09 02:25:57;;;;;;;5.17;1.63;;;15.90;96.70;;;;;;5072527;28;20464;-65
2022/06/09 02:28:24;;;;;;;2.27;1.33;;;15.90;96.60;;;;;;5057636;28;20924;-67
2022/06/09 02:30:51;;;;;;;2.93;1.53;;;15.90;96.70;;;;;;5060519;28;20475;-65
2022/06/09 02:33:20;;;;;;;3.07;1.10;;;15.90;96.60;;;;;;5072352;28;20447;-65
2022/06/09 02:35:47;;;;;;;1.87;1.10;;;16.00;96.70;;;;;;5064358;28;20942;-65
2022/06/09 02:38:15;;;;;;;2.67;1.30;;;16.00;96.80;;;;;;5052312;28;20955;-65
2022/06/09 02:40:42;;;;;;;2.57;1.40;;;16.00;96.80;;;;;;5058058;28;20482;-65
2022/06/09 02:43:09;;;;;;;2.10;1.40;;;16.00;96.80;;;;;;5072439;28;20443;-65
2022/06/09 02:45:37;;;;;;;3.10;1.80;;;16.00;96.80;;;;;;5067064;28;20449;-65
2022/06/09 02:48:05;;;;;;;3.07;1.20;;;16.00;96.90;;;;;;5052321;28;20564;-65
2022/06/09 02:50:35;;;;;;;2.83;1.23;;;16.00;96.90;;;;;;5055515;28;20429;-65
2022/06/09 02:53:02;;;;;;;2.63;1.43;;;16.00;97.00;;;;;;5071946;28;20970;-65
2022/06/09 02:55:30;;;;;;;2.93;1.53;;;15.90;96.90;;;;;;5065076;28;20498;-65
2022/06/09 02:57:57;;;;;;;2.90;1.47;;;15.90;97.10;;;;;;5052216;28;20443;-65
2022/06/09 03:00:24;;;;;;;2.77;1.63;;;15.90;97.50;;;;;;5057214;28;20483;-65
2022/06/09 03:02:53;;;;;;;2.10;1.20;;;15.90;97.60;;;;;;5072125;28;20927;-65
2022/06/09 03:05:21;;;;;;;2.10;1.30;;;15.90;97.70;;;;;;5067072;28;20796;-65
2022/06/09 03:07:50;;;;;;;2.70;1.40;;;15.80;97.70;;;;;;5052086;28;20828;-65
2022/06/09 03:10:18;;;;;;;2.33;1.30;;;15.80;97.90;;;;;;5055193;28;20519;-65
2022/06/09 03:12:46;;;;;;;5.77;1.37;;;15.80;97.70;;;;;;5072022;28;20436;-65
2022/06/09 03:15:14;;;;;;;5.53;1.43;;;15.80;97.70;;;;;;5069054;28;20489;-65
2022/06/09 03:17:42;;;;;;;2.33;1.40;;;15.80;97.70;;;;;;5052045;28;20445;-65
2022/06/09 03:20:13;;;;;;;2.57;1.57;;;15.80;97.70;;;;;;5052710;28;20552;-66
2022/06/09 03:22:40;;;;;;;2.50;1.93;;;15.90;97.80;;;;;;5054504;28;20472;-65
2022/06/09 03:25:09;;;;;;;2.10;1.50;;;15.90;97.90;;;;;;5066950;28;20440;-65
2022/06/09 03:27:37;;;;;;;3.10;1.77;;;15.90;98.00;;;;;;5075958;28;20435;-65
2022/06/09 03:30:05;;;;;;;6.93;1.67;;;15.90;98.00;;;;;;5065212;28;20919;-64
2022/06/09 03:32:32;;;;;;;3.40;1.70;;;15.90;98.00;;;;;;5055851;28;20864;-65
2022/06/09 03:34:59;;;;;;;2.40;1.70;;;16.00;98.00;;;;;;5064175;28;20624;-66
2022/06/09 03:37:26;;;;;;;2.87;1.13;;;16.00;98.00;;;;;;5075860;28;20444;-65
2022/06/09 03:39:54;;;;;;;2.97;1.67;;;15.90;97.80;;;;;;5067410;28;20436;-65
2022/06/09 03:42:22;;;;;;;4.00;2.10;;;16.00;97.90;;;;;;5055447;28;20484;-65
2022/06/09 03:44:49;;;;;;;2.23;1.63;;;16.00;97.80;;;;;;5061941;28;20841;-64
2022/06/09 03:47:17;;;;;;;2.60;1.60;;;16.00;97.70;;;;;;5075512;28;20444;-66
2022/06/09 03:49:44;;;;;;;4.40;2.40;;;15.90;97.70;;;;;;5069572;28;20805;-65
2022/06/09 03:52:11;;;;;;;3.90;2.67;;;15.90;97.60;;;;;;5055397;28;20441;-65
2022/06/09 03:54:38;;;;;;;4.33;2.80;;;15.90;97.50;;;;;;5064999;28;20463;-65
2022/06/09 03:57:06;;;;;;;3.70;2.23;;;16.00;97.50;;;;;;5075368;28;20922;-65
2022/06/09 03:59:35;;;;;;;4.47;2.80;;;16.00;97.40;;;;;;5066196;28;20991;-65
2022/06/09 04:02:02;;;;;;;2.63;1.47;;;16.00;97.30;;;;;;5055473;28;20594;-67
2022/06/09 04:04:29;;;;;;;3.77;1.90;;;16.10;97.30;;;;;;5063056;28;20439;-65
2022/06/09 04:06:57;;;;;;;4.83;1.50;;;16.10;97.10;;;;;;5075673;28;20569;-65
2022/06/09 04:09:25;;;;;;;3.70;1.40;;;16.10;97.10;;;;;;5073955;28;20440;-67
2022/06/09 04:11:52;;;;;;;2.73;1.30;;;16.10;97.20;;;;;;5075746;28;20435;-65
2022/06/09 04:14:19;;;;;;;3.23;1.43;;;16.10;97.00;;;;;;5069752;28;20491;-65
2022/06/09 04:16:48;;;;;;;2.63;1.70;;;16.10;97.10;;;;;;5055348;28;20441;-65
2022/06/09 04:19:17;;;;;;;3.40;1.90;;;16.00;96.70;;;;;;5059100;28;20930;-65
2022/06/09 04:21:45;;;;;;;2.97;1.40;;;15.90;96.90;;;;;;5075089;28;20521;-65
2022/06/09 04:24:12;;;;;;;2.10;1.47;;;16.00;97.00;;;;;;5071808;28;20801;-65
2022/06/09 04:26:42;;;;;;;2.30;1.30;;;16.00;97.00;;;;;;5054850;28;20484;-65
2022/06/09 04:29:12;;;;;;;4.00;1.20;;;15.90;97.40;;;;;;5056027;28;20444;-65
2022/06/09 04:31:40;;;;;;;2.67;1.43;;;15.90;97.70;;;;;;5055193;28;20735;-65
2022/06/09 04:34:09;;;;;;;2.30;1.43;;;15.90;97.80;;;;;;5059698;28;20451;-65
2022/06/09 04:36:36;;;;;;;3.60;1.70;;;15.90;97.70;;;;;;5075110;28;20444;-65
2022/06/09 04:39:05;;;;;;;2.83;1.67;;;15.90;97.90;;;;;;5070025;28;20445;-67
2022/06/09 04:41:32;;;;;;;4.37;1.93;;;16.00;97.90;;;;;;5054912;28;20491;-65
2022/06/09 04:44:00;;;;;;;2.20;1.53;;;16.00;98.10;;;;;;5058117;28;20447;-65
2022/06/09 04:46:27;;;;;;;2.40;1.30;;;16.00;98.00;;;;;;5074954;28;20436;-65
2022/06/09 04:48:55;;;;;;;4.80;1.80;;;16.00;98.00;;;;;;5065234;28;20440;-65
2022/06/09 04:51:25;;;;;;;2.40;1.70;;;16.10;98.10;;;;;;5055017;28;20437;-65
2022/06/09 04:53:52;;;;;;;6.00;2.13;;;16.10;98.10;;;;;;5062263;28;20475;-65
2022/06/09 04:56:21;;;;;;;2.73;1.87;;;16.10;98.00;;;;;;5074827;28;20961;-65
2022/06/09 04:58:50;;;;;;;2.20;1.50;;;16.20;98.00;;;;;;5067324;28;20441;-65
2022/06/09 05:01:20;;;;;;;2.80;1.40;;;16.20;98.10;;;;;;5054668;28;20488;-65
2022/06/09 05:03:48;;;;;;;2.83;2.20;;;16.30;98.30;;;;;;5060916;28;20429;-69
2022/06/09 05:06:17;;;;;;;3.23;2.03;;;16.30;98.30;;;;;;5074276;28;20436;-67
2022/06/09 05:08:46;;;;;;;4.83;1.90;;;16.30;98.30;;;;;;5068282;28;20789;-65
2022/06/09 05:11:13;;;;;;;2.43;1.90;;;16.40;98.30;;;;;;5054259;28;20482;-65
2022/06/09 05:13:40;;;;;;;7.00;2.00;;;16.40;97.90;;;;;;5058831;28;20521;-65
2022/06/09 05:16:08;;;;;;;2.43;1.47;;;16.50;98.20;;;;;;5074028;28;20497;-66
2022/06/09 05:18:35;;;;;;;2.40;1.40;;;16.50;98.20;;;;;;5069634;28;20433;-65
2022/06/09 05:21:03;;;;;;;3.00;1.70;;;16.60;97.80;;;;;;5054153;28;20518;-65
2022/06/09 05:23:31;;;;;;;4.07;1.90;;;16.70;97.90;;;;;;5056261;28;20490;-65
2022/06/09 05:26:01;;;;;;;8.30;1.30;;;16.70;97.00;;;;;;5071162;28;21002;-65
2022/06/09 05:28:30;;;;;;;2.53;1.20;;;16.60;96.20;;;;;;5072159;28;20436;-65
2022/06/09 05:30:58;;;;;;;2.40;0.90;;;16.60;95.80;;;;;;5053933;28;20441;-66
2022/06/09 05:33:25;;;;;;;3.03;1.00;;;16.60;95.90;;;;;;5054246;28;20437;-65
2022/06/09 05:35:52;;;;;;;3.33;1.13;;;16.60;95.70;;;;;;5074159;28;20440;-65
2022/06/09 05:46:37;;;;;;;2.53;0.83;;;16.60;95.70;;;;;;5053795;28;20482;-65
2022/06/09 05:49:04;;;;;;;2.97;1.53;;;16.50;95.50;;;;;;5073579;28;20432;-65
2022/06/09 05:51:32;;;;;;;2.80;1.03;;;16.50;95.60;;;;;;5060643;28;20436;-65
2022/06/09 05:53:59;;;;;;;1.80;0.80;;;16.50;95.70;;;;;;5064295;28;20468;-65
2022/06/09 05:56:28;;;;;;;1.70;0.80;;;16.50;95.80;;;;;;5071443;28;20486;-65
2022/06/09 05:58:56;;;;;;;1.93;0.97;;;16.60;95.00;;;;;;5066587;28;21003;-66
2022/06/09 06:01:23;;;;;;;2.07;0.87;;;16.60;95.50;;;;;;5067208;28;20535;-65
2022/06/09 06:03:56;;;;;;;2.10;0.83;;;16.70;95.60;;;;;;5064392;28;20458;-68
2022/06/09 06:06:34;;;;;;;2.00;0.70;;;16.80;95.10;;;;;;5067478;28;20493;-65
2022/06/09 06:09:02;;;;;;;3.63;0.80;;;16.80;95.20;;;;;;5071524;28;20439;-66
2022/06/09 06:11:30;;;;;;;2.07;0.90;;;16.90;95.40;;;;;;5063689;28;20747;-65
2022/06/09 06:14:02;;;;;;;1.93;0.83;;;17.00;95.20;;;;;;5071192;28;20488;-66
2022/06/09 06:16:29;;;;;;;1.70;0.60;;;17.10;95.10;;;;;;5070364;28;20444;-68
2022/06/09 06:18:58;;;;;;;2.00;0.90;;;17.20;95.10;;;;;;5066710;28;20436;-65
2022/06/09 06:21:25;;;;;;;1.70;0.70;;;17.10;94.30;;;;;;5071466;28;20487;-65
2022/06/09 06:23:53;;;;;;;1.60;0.60;;;17.10;94.00;;;;;;5070730;28;20498;-65
2022/06/09 06:26:21;;;;;;;1.80;0.80;;;17.10;94.30;;;;;;5071258;28;20523;-66
2022/06/09 06:28:50;;;;;;;2.10;0.80;;;17.00;93.60;;;;;;5070214;28;20519;-66
2022/06/09 06:31:22;;;;;;;2.00;0.83;;;17.00;92.90;;;;;;5059634;28;20441;-65
2022/06/09 06:33:49;;;;;;;1.70;0.90;;;16.80;92.90;;;;;;5052223;28;20525;-65
2022/06/09 06:36:16;;;;;;;2.17;0.70;;;16.70;93.20;;;;;;5053320;28;20941;-65
2022/06/09 06:38:44;;;;;;;1.93;1.00;;;16.70;93.30;;;;;;5052681;28;20532;-66
2022/06/09 06:41:12;;;;;;;1.83;0.90;;;16.60;93.30;;;;;;5053126;28;20448;-65
2022/06/09 06:43:40;;;;;;;2.40;1.00;;;16.60;93.60;;;;;;5053314;28;20531;-65
2022/06/09 06:46:09;;;;;;;1.63;0.63;;;16.60;93.80;;;;;;5053007;28;20532;-65
2022/06/09 06:48:36;;;;;;;1.77;0.60;;;16.50;93.10;;;;;;5052761;28;20924;-66
2022/06/09 06:51:05;;;;;;;1.70;0.73;;;16.40;92.00;;;;;;5052862;28;20444;-66
2022/06/09 06:53:32;;;;;;;17.63;1.23;;;16.20;91.90;;;;;;5053068;28;20506;-65
2022/06/09 06:55:59;;;;;;;1.40;0.60;;;16.20;92.00;;;;;;5053019;28;20436;-67
2022/06/09 06:58:26;;;;;;;3.10;0.80;;;16.20;92.70;;;;;;5052957;28;20445;-65
2022/06/09 07:00:53;;;;;;;2.53;0.80;;;16.30;92.60;;;;;;5052896;28;20770;-65
2022/06/09 07:03:21;;;;;;;1.63;0.60;;;16.40;92.80;;;;;;5052985;28;20489;-66
2022/06/09 07:05:49;;;;;;;1.47;0.60;;;16.50;91.20;;;;;;5052926;28;20443;-65
2022/06/09 07:08:17;;;;;;;1.40;0.60;;;16.40;90.80;;;;;;5052855;28;20468;-65
2022/06/09 07:10:44;;;;;;;1.40;0.60;;;16.30;91.40;;;;;;5052910;28;20942;-66
2022/06/09 07:13:12;;;;;;;2.70;1.07;;;16.30;91.50;;;;;;5052461;28;20533;-64
2022/06/09 07:15:40;;;;;;;2.27;0.90;;;16.30;91.50;;;;;;5052785;28;20451;-65
2022/06/09 07:18:09;;;;;;;1.70;0.73;;;16.30;92.00;;;;;;5052705;28;20449;-65
2022/06/09 07:20:39;;;;;;;1.70;0.67;;;16.40;92.00;;;;;;5052669;28;20505;-65
2022/06/09 07:23:06;;;;;;;3.97;0.60;;;16.50;91.80;;;;;;5052895;28;20480;-65
2022/06/09 07:25:33;;;;;;;2.57;0.70;;;16.60;91.40;;;;;;5052779;28;20447;-65
2022/06/09 07:28:00;;;;;;;4.60;0.80;;;16.60;90.30;;;;;;5052816;28;20437;-65
2022/06/09 07:30:28;;;;;;;1.40;0.60;;;16.50;90.30;;;;;;5052756;28;20441;-66
2022/06/09 07:32:55;;;;;;;1.60;0.73;;;16.50;90.50;;;;;;5052915;28;20479;-65
2022/06/09 07:35:25;;;;;;;2.37;0.60;;;16.40;89.80;;;;;;5052752;28;20920;-65
2022/06/09 07:37:54;;;;;;;1.70;0.70;;;16.40;90.40;;;;;;5052715;28;20849;-66
2022/06/09 07:40:21;;;;;;;1.60;0.67;;;16.30;90.10;;;;;;5052736;28;20480;-65
2022/06/09 07:42:49;;;;;;;1.60;0.70;;;16.40;90.70;;;;;;5052266;28;20490;-65
2022/06/09 07:45:16;;;;;;;1.90;0.80;;;16.40;90.40;;;;;;5052180;28;20440;-65
2022/06/09 07:47:43;;;;;;;1.60;0.73;;;16.60;90.80;;;;;;5052690;28;20441;-67
2022/06/09 07:50:12;;;;;;;2.70;0.63;;;16.60;89.50;;;;;;5052651;28;20437;-65
2022/06/09 07:52:41;;;;;;;1.80;0.80;;;16.60;89.60;;;;;;5052654;28;20824;-65
2022/06/09 07:55:10;;;;;;;1.60;0.50;;;16.70;90.00;;;;;;5052431;28;20487;-65
2022/06/09 07:57:37;;;;;;;1.90;0.60;;;16.70;89.80;;;;;;5052324;28;20447;-66
2022/06/09 08:00:05;;;;;;;2.00;0.70;;;16.90;89.80;;;;;;5051574;28;20523;-66
2022/06/09 08:02:32;;;;;;;1.53;0.80;;;17.00;88.90;;;;;;5061485;28;20480;-67
2022/06/09 08:04:59;;;;;;;1.60;0.57;;;17.20;86.50;;;;;;5061277;28;20796;-66
2022/06/09 08:07:26;;;;;;;2.13;0.90;;;17.30;86.30;;;;;;5060498;28;20779;-65
2022/06/09 08:09:53;;;;;;;5.73;2.37;;;17.30;85.00;;;;;;5064441;28;20451;-65
2022/06/09 08:12:22;;;;;;;6.60;4.70;;;17.40;85.50;;;;;;5065693;28;20784;-65
2022/06/09 08:14:49;;;;;;;2.87;1.40;;;17.60;86.20;;;;;;5066090;28;20440;-65
2022/06/09 08:17:16;;;;;;;2.10;0.90;;;17.70;83.50;;;;;;5063115;28;20531;-65
2022/06/09 08:19:45;;;;;;;6.17;3.70;;;17.80;84.40;;;;;;5066740;28;20789;-65
2022/06/09 08:22:12;;;;;;;2.67;1.50;;;18.00;87.10;;;;;;5066013;28;20489;-65
2022/06/09 08:24:39;;;;;;;2.63;1.43;;;18.10;85.60;;;;;;5063433;28;20452;-65
2022/06/09 08:27:06;;;;;;;1.70;0.60;;;18.20;85.70;;;;;;5065049;28;20441;-65
2022/06/09 08:29:36;;;;;;;3.20;0.80;;;18.20;82.80;;;;;;5063814;28;20451;-65
2022/06/09 08:32:04;;;;;;;4.83;1.17;;;18.40;82.50;;;;;;5066534;28;20889;-65
2022/06/09 08:34:31;;;;;;;1.80;0.67;;;18.50;84.10;;;;;;5066029;28;20506;-65
2022/06/09 08:36:58;;;;;;;1.97;0.87;;;18.70;81.80;;;;;;5065072;28;20446;-67
2022/06/09 08:39:25;;;;;;;2.60;0.83;;;18.60;79.20;;;;;;5066639;28;20438;-65
2022/06/09 08:42:07;;;;;;;5.33;1.30;;;18.70;79.40;;;;;;5062179;28;20440;-66
2022/06/09 08:44:45;;;;;;;2.07;0.83;;;18.80;80.90;;;;;;5066294;28;20515;-65
2022/06/09 08:47:23;;;;;;;2.30;0.70;;;19.10;80.80;;;;;;5062357;28;21029;-65
2022/06/09 08:50:01;;;;;;;1.97;0.87;;;19.10;77.80;;;;;;5066491;28;20446;-65
2022/06/09 08:52:47;;;;;;;3.23;1.20;;;19.20;78.10;;;;;;5064788;28;20545;-66
2022/06/09 08:55:24;;;;;;;3.67;0.80;;;19.20;76.40;;;;;;5065131;28;20444;-65
2022/06/09 08:57:58;;;;;;;3.30;0.97;;;19.00;76.20;;;;;;5064239;28;20518;-65
2022/06/09 09:00:34;;;;;;;2.53;0.90;;;18.90;76.20;;;;;;5064718;28;20522;-65
2022/06/09 09:03:13;;;;;;;4.33;0.90;;;18.80;76.50;;;;;;5063399;28;20571;-65
2022/06/09 09:05:44;;;;;;;1.77;0.80;;;18.60;76.60;;;;;;5063262;28;20431;-65
2022/06/09 09:08:12;;;;;;;3.83;1.20;;;18.40;77.70;;;;;;5064596;28;20440;-65
2022/06/09 09:11:03;;;;;;;2.93;0.90;;;18.20;78.50;;;;;;5065239;28;20441;-65
2022/06/09 09:13:46;;;;;;;2.07;0.93;;;18.00;79.90;;;;;;5064975;28;20440;-65
2022/06/09 09:16:21;;;;;;;1.70;0.80;;;17.90;82.80;;;;;;5064037;28;20444;-65
2022/06/09 09:18:54;;;;;;;2.07;0.70;;;17.90;84.50;;;;;;5063535;28;20950;-65
2022/06/09 09:21:37;;;;;;;1.93;0.70;;;17.90;83.80;;;;;;5061632;28;20455;-65
2022/06/09 09:24:19;;;;;;;2.43;1.20;;;17.70;81.60;;;;;;5062519;28;20476;-65
2022/06/09 09:27:01;;;;;;;5.07;3.80;;;17.60;81.60;;;;;;5062368;28;20436;-65
2022/06/09 09:29:34;;;;;;;5.47;2.83;;;17.40;81.60;;;;;;5062526;28;20448;-65
2022/06/09 09:32:06;;;;;;;1.83;1.03;;;17.30;82.20;;;;;;5061903;28;20547;-66
2022/06/09 09:34:35;;;;;;;1.70;0.77;;;17.10;82.00;;;;;;5064563;28;20519;-65
2022/06/09 09:37:11;;;;;;;1.73;0.77;;;17.10;82.20;;;;;;5062863;28;20507;-65
2022/06/09 09:39:44;;;;;;;2.40;0.93;;;16.90;83.30;;;;;;5064456;28;20452;-66
2022/06/09 09:42:15;;;;;;;1.73;0.80;;;16.90;83.90;;;;;;5067342;28;20443;-66
2022/06/09 09:44:57;;;;;;;2.40;0.87;;;16.70;84.40;;;;;;5064960;28;20463;-66
2022/06/09 09:47:28;;;;;;;2.00;1.00;;;16.50;84.10;;;;;;5066682;28;20906;-65
2022/06/09 09:50:02;;;;;;;2.37;0.80;;;16.40;85.80;;;;;;5070007;28;20483;-65
2022/06/09 09:52:36;;;;;;;2.90;0.70;;;16.30;86.80;;;;;;5070948;28;20470;-66
2022/06/09 09:55:03;;;;;;;2.00;0.77;;;16.30;88.20;;;;;;5069092;28;20477;-66
2022/06/09 09:57:30;;;;;;;1.60;0.80;;;16.30;90.00;;;;;;5064813;28;20518;-66
2022/06/09 09:59:59;;;;;;;1.83;0.77;;;16.40;90.50;;;;;;5064283;28;20474;-68
2022/06/09 10:08:39;;;;;;;4.30;3.10;;;16.60;89.30;;;;;;5061703;28;20431;-66
2022/06/09 10:13:55;;;;;;;2.10;0.80;;;16.50;90.00;;;;;;5061310;28;20435;-65
2022/06/09 10:16:22;;;;;;;2.70;0.87;;;16.60;89.80;;;;;;5063192;28;20483;-65
2022/06/09 10:18:54;;;;;;;1.70;0.70;;;16.80;90.00;;;;;;5055648;28;20433;-66
2022/06/09 10:21:21;;;;;;;1.93;0.77;;;16.90;90.30;;;;;;5053258;28;20449;-65
2022/06/09 10:23:55;;;;;;;2.33;1.10;;;17.20;90.60;;;;;;5053699;28;20528;-65
2022/06/09 10:26:27;;;;;;;3.20;0.90;;;17.50;90.40;;;;;;5053656;28;20475;-65
2022/06/09 10:29:00;;;;;;;4.93;3.07;;;17.90;90.80;;;;;;5053598;28;20468;-66
2022/06/09 10:31:38;;;;;;;3.00;2.10;;;18.40;90.80;;;;;;5052968;28;20523;-66
2022/06/09 10:34:28;;;;;;;2.23;0.93;;;18.90;90.20;;;;;;5053251;28;20435;-66
2022/06/09 10:37:01;;;;;;;4.00;1.50;;;19.40;88.30;;;;;;5053328;28;20957;-66
2022/06/09 10:39:37;;;;;;;6.33;3.07;;;19.70;85.90;;;;;;5053074;28;20474;-66
2022/06/09 10:42:10;;;;;;;4.40;2.20;;;19.90;84.70;;;;;;5053167;28;20995;-66
2022/06/09 10:44:44;;;;;;;1.80;0.77;;;20.00;81.90;;;;;;5052996;28;20481;-65
2022/06/09 10:56:04;;;;;;;1.50;0.60;;;19.70;79.20;;;;;;5053202;28;20784;-66
2022/06/09 10:58:36;;;;;;;3.10;0.90;;;19.60;76.90;;;;;;5052868;28;20442;-66
2022/06/09 11:01:04;;;;;;;2.67;0.80;;;19.40;77.00;;;;;;5052840;28;20433;-66
2022/06/09 11:03:39;;;;;;;1.97;0.80;;;19.20;76.10;;;;;;5052508;28;20481;-67
2022/06/09 11:06:19;;;;;;;2.60;0.80;;;19.10;77.40;;;;;;5072215;28;20467;-66
2022/06/09 11:08:57;;;;;;;2.20;0.90;;;19.00;79.40;;;;;;5072792;28;20459;-66
2022/06/09 11:11:35;;;;;;;3.80;0.90;;;19.00;80.70;;;;;;5073080;28;20447;-66
2022/06/09 11:14:15;;;;;;;3.37;1.30;;;18.90;80.80;;;;;;5069238;28;20538;-66
2022/06/09 11:17:01;;;;;;;2.20;1.00;;;18.80;80.70;;;;;;5066399;28;20439;-65
2022/06/09 11:19:52;;;;;;;2.60;0.83;;;18.70;81.90;;;;;;5066804;28;20853;-66
2022/06/09 11:22:34;;;;;;;2.43;0.90;;;18.60;82.40;;;;;;5068080;28;20894;-66
2022/06/09 11:25:20;;;;;;;3.47;1.50;;;18.60;83.20;;;;;;5068250;28;20436;-65
2022/06/09 11:27:59;;;;;;;20.03;13.30;;;18.40;80.90;;;;;;5072714;28;20531;-65
2022/06/09 11:30:34;;;;;;;8.40;2.30;;;18.20;82.30;;;;;;5052347;28;20445;-66
2022/06/09 11:33:16;;;;;;;5.33;1.23;;;18.20;83.90;;;;;;5059872;28;20441;-67
2022/06/09 11:35:51;;;;;;;1.97;0.83;;;18.20;82.70;;;;;;5056895;28;20771;-65
2022/06/09 11:38:44;;;;;;;3.13;1.10;;;18.00;83.30;;;;;;5071829;28;20937;-66
2022/06/09 11:41:25;;;;;;;4.57;1.40;;;17.90;84.90;;;;;;5071599;28;20918;-66
2022/06/09 11:44:06;;;;;;;4.07;0.87;;;17.80;84.00;;;;;;5073051;28;20475;-66
2022/06/09 11:46:36;;;;;;;2.23;0.70;;;17.70;82.40;;;;;;5074119;28;20530;-67
2022/06/09 11:49:06;;;;;;;1.83;0.90;;;17.60;77.80;;;;;;5071401;28;20468;-64
2022/06/09 11:51:35;;;;;;;2.30;0.80;;;17.40;78.10;;;;;;5055915;28;20476;-64
2022/06/09 11:54:07;;;;;;;4.37;1.27;;;17.20;79.10;;;;;;5055901;28;20464;-64
2022/06/09 11:56:40;;;;;;;4.00;0.90;;;17.10;79.60;;;;;;5056133;28;20441;-64
2022/06/09 11:59:24;;;;;;;2.17;0.90;;;17.10;81.10;;;;;;5056299;28;20448;-64
2022/06/09 12:02:29;;;;;;;5.53;0.90;;;17.10;80.90;;;;;;5056390;28;20428;-64
2022/06/09 12:05:15;;;;;;;5.40;1.27;;;16.90;82.40;;;;;;5054391;28;20495;-63
2022/06/09 12:07:59;;;;;;;2.27;1.30;;;16.50;84.20;;;;;;5056205;28;20437;-63
2022/06/09 12:10:59;;;;;;;3.10;1.10;;;16.50;86.00;;;;;;5055763;28;20899;-64
2022/06/09 12:13:28;;;;;;;8.10;1.30;;;16.70;87.50;;;;;;5055811;28;20893;-64
2022/06/09 12:16:00;;;;;;;3.33;0.90;;;16.80;86.90;;;;;;5056129;28;20428;-63
2022/06/09 12:18:36;;;;;;;2.23;1.20;;;16.90;88.20;;;;;;5056050;28;20912;-70
2022/06/09 12:21:14;;;;;;;3.00;1.00;;;16.90;87.70;;;;;;5056057;28;20524;-64
2022/06/09 12:23:45;;;;;;;2.10;0.80;;;16.90;88.10;;;;;;5055868;28;20476;-64
2022/06/09 12:29:43;;;;;;;1.90;0.90;;;17.00;88.00;;;;;;5131717;27;20536;-64
2022/06/09 12:32:38;;;;;;;2.53;1.30;;;17.00;88.00;;;;;;5131391;27;20417;-64
2022/06/09 12:35:26;;;;;;;3.17;1.20;;;16.90;87.20;;;;;;5131405;28;20476;-64
2022/06/09 12:38:01;;;;;;;6.33;1.80;;;16.90;88.60;;;;;;5131427;28;20433;-64
2022/06/09 12:40:36;;;;;;;2.40;1.10;;;16.90;88.10;;;;;;5131280;27;20437;-65
2022/06/09 12:43:19;;;;;;;1.90;0.80;;;16.80;88.80;;;;;;5131457;28;20812;-64
2022/06/09 12:46:01;;;;;;;3.13;1.53;;;16.90;88.40;;;;;;5131205;27;20521;-64
2022/06/09 12:48:30;;;;;;;2.33;1.23;;;16.80;88.50;;;;;;5131129;28;20472;-65
2022/06/09 12:50:57;;;;;;;2.03;1.30;;;16.90;87.80;;;;;;5131160;27;20441;-65
2022/06/09 12:53:28;;;;;;;3.43;1.37;;;17.00;88.00;;;;;;5131237;28;20433;-64
2022/06/09 12:56:00;;;;;;;2.40;1.40;;;17.00;88.60;;;;;;5130599;27;20453;-64
2022/06/09 12:58:35;;;;;;;2.00;1.00;;;17.20;89.40;;;;;;5131176;27;20822;-64
2022/06/09 13:01:12;;;;;;;2.83;1.30;;;17.30;88.10;;;;;;5131013;28;20451;-64
2022/06/09 13:03:45;;;;;;;2.70;1.10;;;17.30;88.10;;;;;;5130615;28;20429;-64
2022/06/09 13:06:22;;;;;;;2.33;0.97;;;17.40;88.20;;;;;;5130749;28;20465;-65
2022/06/09 13:08:51;;;;;;;2.10;1.10;;;17.50;89.30;;;;;;5130690;27;20879;-64
2022/06/09 13:12:50;;;;;;;3.60;1.17;;;17.50;89.40;;;;;;5130675;28;20437;-65
2022/06/09 13:14:10;;;;;;;1.80;0.80;;;17.50;89.70;;;;;;5130804;28;20778;-64
2022/06/09 13:16:44;;;;;;;1.60;0.70;;;17.50;88.10;;;;;;5130764;27;20437;-64
2022/06/09 13:19:13;;;;;;;4.53;0.80;;;17.50;85.50;;;;;;5130491;28;20958;-64
2022/06/09 13:21:42;;;;;;;4.90;1.10;;;17.50;86.10;;;;;;5130489;28;20510;-65
2022/06/09 13:24:15;;;;;;;2.43;1.20;;;17.40;86.80;;;;;;5130494;28;20444;-64
2022/06/09 13:26:46;;;;;;;2.77;1.33;;;17.50;87.50;;;;;;5130116;27;20440;-64
2022/06/09 13:29:21;;;;;;;1.97;1.10;;;17.70;87.10;;;;;;5130096;28;20855;-65
2022/06/09 13:31:52;;;;;;;3.20;1.03;;;17.90;88.50;;;;;;5130185;28;20747;-64
2022/06/09 13:34:26;;;;;;;2.33;1.00;;;18.10;87.90;;;;;;5130148;28;20487;-64
2022/06/09 13:37:09;;;;;;;2.27;1.00;;;18.20;83.50;;;;;;5130318;28;20444;-64